Time;durP1;ratioP1;P1;durP2;ratioP2;P2;SDS_P1;SDS_P2;PMS_P1;PMS_P2;Temp;Humidity;BMP_temperature;BMP_pressure;BME280_temperature;BME280_humidity;BME280_pressure;Samples;Min_cycle;Max_cycle;Signal;HPM_P1;HPM_P2
2024/01/03 00:01:13;;;;;;;1.40;1.30;;;;;;;;;;4993752;28;20236;-89
2024/01/03 00:03:40;;;;;;;1.90;1.80;;;;;;;;;;4993920;28;20236;-90
2024/01/03 00:06:07;;;;;;;1.73;1.30;;;;;;;;;;4993906;28;20599;-89
2024/01/03 00:08:38;;;;;;;1.30;1.30;;;;;;;;;;4995240;28;20578;-89
2024/01/03 00:11:06;;;;;;;2.10;1.20;;;;;;;;;;4986041;28;20647;-89
2024/01/03 00:13:56;;;;;;;1.27;1.27;;;;;;;;;;4994923;28;20204;-89
2024/01/03 00:16:23;;;;;;;1.10;1.10;;;;;;;;;;4993150;28;20227;-89
2024/01/03 00:18:51;;;;;;;1.20;1.20;;;;;;;;;;4993526;28;20228;-91
2024/01/03 00:21:19;;;;;;;2.97;1.97;;;;;;;;;;4992432;28;20231;-90
2024/01/03 00:23:49;;;;;;;2.60;1.20;;;;;;;;;;4993172;28;20256;-90
2024/01/03 00:26:17;;;;;;;1.10;1.10;;;;;;;;;;4992603;28;20585;-90
2024/01/03 00:28:44;;;;;;;4.80;1.60;;;;;;;;;;4993564;28;20231;-89
2024/01/03 00:31:17;;;;;;;1.27;1.27;;;;;;;;;;4995590;28;20227;-89
2024/01/03 00:33:44;;;;;;;1.57;1.47;;;;;;;;;;4993795;28;20200;-90
2024/01/03 00:36:13;;;;;;;1.30;1.27;;;;;;;;;;4993174;28;20235;-89
2024/01/03 00:38:42;;;;;;;1.00;1.00;;;;;;;;;;4995114;28;20224;-90
2024/01/03 00:41:09;;;;;;;1.50;1.40;;;;;;;;;;4991996;28;20236;-89
2024/01/03 00:43:36;;;;;;;1.53;1.27;;;;;;;;;;4997286;28;20226;-89
2024/01/03 00:46:03;;;;;;;2.60;1.47;;;;;;;;;;4996400;28;20278;-89
2024/01/03 00:48:32;;;;;;;1.37;1.27;;;;;;;;;;4996971;28;20231;-89
2024/01/03 00:50:59;;;;;;;2.13;1.47;;;;;;;;;;5003854;28;20663;-90
2024/01/03 00:53:26;;;;;;;3.80;1.20;;;;;;;;;;5016672;28;20718;-89
2024/01/03 00:55:53;;;;;;;1.37;1.10;;;;;;;;;;5015442;28;20716;-90
2024/01/03 00:58:20;;;;;;;1.17;1.07;;;;;;;;;;5016029;28;20227;-90
2024/01/03 01:00:48;;;;;;;1.00;1.00;;;;;;;;;;5015563;28;20242;-89
2024/01/03 01:03:15;;;;;;;1.33;1.27;;;;;;;;;;5015980;28;20200;-90
2024/01/03 01:05:44;;;;;;;3.90;1.50;;;;;;;;;;5010221;28;20228;-91
2024/01/03 01:08:11;;;;;;;2.30;1.93;;;;;;;;;;4996507;28;20216;-90
2024/01/03 01:10:38;;;;;;;1.33;1.23;;;;;;;;;;4995824;28;20236;-89
2024/01/03 01:13:05;;;;;;;1.03;1.03;;;;;;;;;;4996668;28;20205;-89
2024/01/03 01:15:32;;;;;;;1.47;1.40;;;;;;;;;;4996158;28;20234;-90
2024/01/03 01:17:59;;;;;;;3.80;1.30;;;;;;;;;;4996225;28;20216;-90
2024/01/03 01:20:26;;;;;;;1.47;1.00;;;;;;;;;;4995662;28;20242;-89
2024/01/03 01:22:54;;;;;;;2.33;1.63;;;;;;;;;;4996352;28;20224;-89
2024/01/03 01:25:21;;;;;;;4.20;1.10;;;;;;;;;;4995708;28;20215;-89
2024/01/03 01:27:48;;;;;;;0.90;0.90;;;;;;;;;;4995748;28;20304;-90
2024/01/03 01:30:15;;;;;;;0.90;0.90;;;;;;;;;;4995781;28;20208;-90
2024/01/03 01:32:41;;;;;;;0.90;0.90;;;;;;;;;;4996287;28;20208;-89
2024/01/03 01:35:09;;;;;;;1.00;1.00;;;;;;;;;;4995384;28;20298;-89
2024/01/03 01:37:36;;;;;;;1.20;1.10;;;;;;;;;;4995721;28;20244;-89
2024/01/03 01:40:05;;;;;;;1.00;1.00;;;;;;;;;;4993641;28;20224;-87
2024/01/03 01:42:32;;;;;;;0.93;0.93;;;;;;;;;;4995607;28;20271;-88
2024/01/03 01:44:59;;;;;;;1.03;1.03;;;;;;;;;;4995706;28;20231;-89
2024/01/03 01:47:27;;;;;;;0.90;0.90;;;;;;;;;;4995244;28;20234;-89
2024/01/03 01:49:54;;;;;;;1.13;1.13;;;;;;;;;;4995520;28;20236;-88
2024/01/03 01:52:22;;;;;;;1.03;1.03;;;;;;;;;;4994999;28;20232;-89
2024/01/03 01:54:49;;;;;;;1.13;1.00;;;;;;;;;;4995760;28;20212;-89
2024/01/03 01:57:18;;;;;;;2.30;1.10;;;;;;;;;;4995098;28;20278;-89
2024/01/03 01:59:45;;;;;;;1.00;1.00;;;;;;;;;;4995475;28;20656;-90
2024/01/03 02:02:13;;;;;;;1.10;1.10;;;;;;;;;;4994834;28;20240;-89
2024/01/03 02:04:40;;;;;;;1.20;1.10;;;;;;;;;;4995302;28;20238;-89
2024/01/03 02:07:09;;;;;;;1.20;1.10;;;;;;;;;;4993636;28;20231;-89
2024/01/03 02:09:36;;;;;;;1.43;0.90;;;;;;;;;;4994738;28;20310;-90
2024/01/03 02:12:03;;;;;;;1.30;1.20;;;;;;;;;;4995039;28;20239;-89
2024/01/03 02:14:31;;;;;;;2.67;1.37;;;;;;;;;;4995537;28;20208;-89
2024/01/03 02:16:58;;;;;;;2.10;1.53;;;;;;;;;;4995054;28;20243;-88
2024/01/03 02:19:25;;;;;;;2.40;1.30;;;;;;;;;;4995552;28;20220;-89
2024/01/03 02:21:53;;;;;;;2.20;1.37;;;;;;;;;;4994490;28;20232;-89
2024/01/03 02:24:20;;;;;;;2.20;1.83;;;;;;;;;;4995254;28;20223;-89
2024/01/03 02:26:47;;;;;;;2.37;1.47;;;;;;;;;;4994937;28;20236;-90
2024/01/03 02:29:14;;;;;;;4.10;1.37;;;;;;;;;;4995089;28;20231;-88
2024/01/03 02:31:41;;;;;;;1.50;1.33;;;;;;;;;;4994671;28;20246;-89
2024/01/03 02:34:08;;;;;;;1.40;1.20;;;;;;;;;;4995218;28;20211;-89
2024/01/03 02:36:35;;;;;;;1.53;1.43;;;;;;;;;;5007165;28;20230;-89
2024/01/03 02:39:04;;;;;;;1.50;1.47;;;;;;;;;;5014732;28;20227;-89
2024/01/03 02:41:31;;;;;;;3.13;1.40;;;;;;;;;;5014037;28;20227;-90
2024/01/03 02:43:58;;;;;;;4.63;1.50;;;;;;;;;;5014076;28;20211;-87
2024/01/03 02:46:25;;;;;;;1.60;1.50;;;;;;;;;;5013779;28;20234;-90
2024/01/03 02:48:52;;;;;;;1.70;1.37;;;;;;;;;;5014390;28;20226;-89
2024/01/03 02:51:19;;;;;;;3.23;1.60;;;;;;;;;;5014181;28;20250;-88
2024/01/03 02:53:47;;;;;;;1.20;1.20;;;;;;;;;;5014238;28;20265;-89
2024/01/03 02:56:16;;;;;;;1.63;1.53;;;;;;;;;;5013767;28;20249;-89
2024/01/03 02:58:43;;;;;;;4.67;1.57;;;;;;;;;;5014004;28;20227;-89
2024/01/03 03:01:10;;;;;;;1.67;1.40;;;;;;;;;;5003551;28;20247;-90
2024/01/03 03:03:37;;;;;;;1.80;1.20;;;;;;;;;;4994622;28;20201;-90
2024/01/03 03:06:04;;;;;;;3.23;1.83;;;;;;;;;;4999775;28;20239;-88
2024/01/03 03:08:31;;;;;;;7.63;1.57;;;;;;;;;;5000500;28;20238;-91
2024/01/03 03:10:58;;;;;;;1.53;1.13;;;;;;;;;;5005097;28;20418;-88
2024/01/03 03:13:27;;;;;;;2.07;1.10;;;;;;;;;;5005805;28;20200;-91
2024/01/03 03:15:54;;;;;;;2.60;1.43;;;;;;;;;;5012737;28;20259;-90
2024/01/03 03:18:22;;;;;;;1.30;1.13;;;;;;;;;;4998584;28;20220;-89
2024/01/03 03:20:49;;;;;;;1.50;1.20;;;;;;;;;;5000592;28;20239;-91
2024/01/03 03:23:16;;;;;;;1.07;1.07;;;;;;;;;;5013632;28;20279;-90
2024/01/03 03:25:43;;;;;;;1.23;1.13;;;;;;;;;;5013463;28;20239;-90
2024/01/03 03:28:10;;;;;;;1.50;1.40;;;;;;;;;;5013386;28;20226;-90
2024/01/03 03:30:38;;;;;;;1.60;1.50;;;;;;;;;;5013704;28;20230;-90
2024/01/03 03:33:05;;;;;;;1.03;1.00;;;;;;;;;;5013749;28;20212;-89
2024/01/03 03:35:32;;;;;;;1.23;1.20;;;;;;;;;;5012962;28;20231;-89
2024/01/03 03:37:59;;;;;;;1.27;1.27;;;;;;;;;;5013120;28;20207;-89
2024/01/03 03:40:26;;;;;;;3.43;1.40;;;;;;;;;;5013343;28;20235;-89
2024/01/03 03:42:53;;;;;;;2.30;1.30;;;;;;;;;;5013754;28;20210;-89
2024/01/03 03:45:22;;;;;;;4.60;1.63;;;;;;;;;;5012834;28;20215;-90
2024/01/03 03:47:50;;;;;;;1.00;1.00;;;;;;;;;;5013134;28;20199;-89
2024/01/03 03:50:17;;;;;;;1.00;1.00;;;;;;;;;;5013103;28;20207;-89
2024/01/03 03:52:45;;;;;;;5.70;1.67;;;;;;;;;;5013851;28;20206;-89
2024/01/03 03:55:14;;;;;;;2.90;1.40;;;;;;;;;;5013090;28;20204;-88
2024/01/03 03:57:41;;;;;;;3.30;1.30;;;;;;;;;;5013551;28;20204;-89
2024/01/03 04:00:09;;;;;;;1.53;1.43;;;;;;;;;;5012495;28;20282;-89
2024/01/03 04:02:36;;;;;;;1.50;1.40;;;;;;;;;;5013360;28;20211;-88
2024/01/03 04:05:04;;;;;;;3.97;1.63;;;;;;;;;;5009918;28;20369;-87
2024/01/03 04:07:32;;;;;;;1.30;1.20;;;;;;;;;;5012765;28;20597;-88
2024/01/03 04:10:00;;;;;;;2.97;1.67;;;;;;;;;;5011298;28;20310;-89
2024/01/03 04:12:27;;;;;;;3.00;1.47;;;;;;;;;;5013113;28;20231;-89
2024/01/03 04:14:54;;;;;;;3.20;1.43;;;;;;;;;;5016916;28;20207;-89
2024/01/03 04:17:21;;;;;;;3.37;1.67;;;;;;;;;;5016310;28;20227;-90
2024/01/03 04:19:48;;;;;;;1.47;1.30;;;;;;;;;;5016990;28;20258;-89
2024/01/03 04:22:16;;;;;;;1.57;1.47;;;;;;;;;;5016437;28;20580;-89
2024/01/03 04:24:43;;;;;;;3.37;1.33;;;;;;;;;;5016576;28;20223;-89
2024/01/03 04:27:11;;;;;;;3.57;1.87;;;;;;;;;;5016029;28;20235;-88
2024/01/03 04:29:38;;;;;;;4.50;1.60;;;;;;;;;;5016741;28;20238;-89
2024/01/03 04:32:07;;;;;;;3.07;1.50;;;;;;;;;;5016187;28;20242;-89
2024/01/03 04:34:36;;;;;;;1.80;1.67;;;;;;;;;;5016789;28;20335;-87
2024/01/03 04:37:04;;;;;;;2.73;1.33;;;;;;;;;;5016040;28;20259;-89
2024/01/03 04:39:32;;;;;;;3.53;1.77;;;;;;;;;;5016633;28;20219;-89
2024/01/03 04:41:59;;;;;;;1.40;1.30;;;;;;;;;;5015873;28;20235;-89
2024/01/03 04:44:36;;;;;;;1.53;1.50;;;;;;;;;;5016286;28;20210;-89
2024/01/03 04:47:03;;;;;;;1.37;1.27;;;;;;;;;;5016008;28;20361;-89
2024/01/03 04:49:30;;;;;;;4.07;1.67;;;;;;;;;;5016932;28;20716;-89
2024/01/03 04:51:57;;;;;;;3.20;1.57;;;;;;;;;;5015873;28;20740;-89
2024/01/03 04:54:25;;;;;;;2.20;1.30;;;;;;;;;;5016454;28;20207;-89
2024/01/03 04:56:53;;;;;;;3.23;1.77;;;;;;;;;;5015808;28;20720;-89
2024/01/03 04:59:20;;;;;;;1.77;1.67;;;;;;;;;;5016485;28;20720;-89
2024/01/03 05:01:47;;;;;;;1.77;1.67;;;;;;;;;;5015579;28;20261;-88
2024/01/03 05:04:14;;;;;;;2.83;1.60;;;;;;;;;;5015959;28;20230;-89
2024/01/03 05:06:42;;;;;;;1.43;1.27;;;;;;;;;;5015289;28;20325;-90
2024/01/03 05:09:09;;;;;;;4.67;1.37;;;;;;;;;;5015888;28;20713;-89
2024/01/03 05:11:36;;;;;;;4.53;2.13;;;;;;;;;;5015553;28;20227;-90
2024/01/03 05:14:04;;;;;;;3.53;2.27;;;;;;;;;;5016176;28;20680;-90
2024/01/03 05:16:31;;;;;;;2.77;1.67;;;;;;;;;;5015229;28;20224;-89
2024/01/03 05:19:09;;;;;;;3.93;1.93;;;;;;;;;;5011036;28;20232;-89
2024/01/03 05:21:36;;;;;;;1.40;1.30;;;;;;;;;;5015193;28;20350;-90
2024/01/03 05:24:03;;;;;;;5.90;1.90;;;;;;;;;;5015532;28;20214;-89
2024/01/03 05:26:30;;;;;;;2.37;1.47;;;;;;;;;;5015151;28;20231;-89
2024/01/03 05:28:57;;;;;;;4.43;1.97;;;;;;;;;;5015535;28;20220;-90
2024/01/03 05:31:25;;;;;;;7.00;1.87;;;;;;;;;;5015612;28;20246;-89
2024/01/03 05:33:52;;;;;;;6.40;2.47;;;;;;;;;;5015461;28;20218;-90
2024/01/03 05:36:19;;;;;;;2.23;1.40;;;;;;;;;;5006851;28;20254;-89
2024/01/03 05:38:46;;;;;;;5.50;1.97;;;;;;;;;;5015087;28;20756;-89
2024/01/03 05:41:13;;;;;;;5.00;2.67;;;;;;;;;;5014986;28;20239;-89
2024/01/03 05:43:40;;;;;;;4.13;1.47;;;;;;;;;;5015492;28;20599;-90
2024/01/03 05:46:07;;;;;;;4.37;2.10;;;;;;;;;;5014785;28;20289;-91
2024/01/03 05:48:36;;;;;;;8.53;3.30;;;;;;;;;;5015631;28;20285;-90
2024/01/03 05:51:03;;;;;;;3.57;1.80;;;;;;;;;;5016198;28;20270;-91
2024/01/03 05:53:30;;;;;;;2.73;1.60;;;;;;;;;;5017065;28;20292;-90
2024/01/03 05:55:57;;;;;;;3.50;1.80;;;;;;;;;;5018915;28;20254;-89
2024/01/03 05:58:25;;;;;;;5.53;1.83;;;;;;;;;;5017541;28;20237;-90
2024/01/03 06:00:52;;;;;;;1.97;1.77;;;;;;;;;;5016385;28;20705;-90
2024/01/03 06:03:19;;;;;;;3.57;1.90;;;;;;;;;;5015999;28;20234;-91
2024/01/03 06:05:47;;;;;;;5.70;2.37;;;;;;;;;;5009009;28;20242;-90
2024/01/03 06:08:14;;;;;;;4.47;2.10;;;;;;;;;;4996891;28;20224;-89
2024/01/03 06:10:41;;;;;;;3.83;1.60;;;;;;;;;;4996166;28;20251;-89
2024/01/03 06:13:11;;;;;;;8.47;2.13;;;;;;;;;;4997686;28;20211;-89
2024/01/03 06:15:38;;;;;;;3.33;1.60;;;;;;;;;;4995355;28;20240;-89
2024/01/03 06:18:05;;;;;;;3.63;2.23;;;;;;;;;;4996056;28;20228;-88
2024/01/03 06:20:33;;;;;;;2.87;1.57;;;;;;;;;;4994107;28;20237;-88
2024/01/03 06:23:02;;;;;;;2.50;1.70;;;;;;;;;;4993784;28;20211;-88
2024/01/03 06:25:31;;;;;;;2.03;1.50;;;;;;;;;;4993822;28;20247;-88
2024/01/03 06:27:58;;;;;;;5.37;1.50;;;;;;;;;;4994982;28;20291;-88
2024/01/03 06:30:25;;;;;;;7.73;2.63;;;;;;;;;;4989310;28;20239;-85
2024/01/03 06:32:52;;;;;;;4.03;1.77;;;;;;;;;;4993926;28;20201;-85
2024/01/03 06:35:19;;;;;;;3.97;1.67;;;;;;;;;;4992381;28;20212;-86
2024/01/03 06:37:46;;;;;;;5.27;2.13;;;;;;;;;;4993663;28;20200;-86
2024/01/03 06:40:14;;;;;;;4.13;1.83;;;;;;;;;;4993698;28;20204;-86
2024/01/03 06:42:42;;;;;;;5.73;1.90;;;;;;;;;;4994187;28;20196;-85
2024/01/03 06:45:09;;;;;;;2.00;1.50;;;;;;;;;;4995211;28;20305;-85
2024/01/03 06:47:36;;;;;;;4.50;1.87;;;;;;;;;;4995092;28;20231;-86
2024/01/03 06:50:03;;;;;;;3.30;1.63;;;;;;;;;;4995481;28;20251;-85
2024/01/03 06:52:30;;;;;;;5.77;2.33;;;;;;;;;;4995754;28;20208;-85
2024/01/03 06:54:57;;;;;;;2.73;1.47;;;;;;;;;;4994358;28;20211;-87
2024/01/03 06:57:26;;;;;;;7.43;3.13;;;;;;;;;;4993314;28;20718;-86
2024/01/03 06:59:53;;;;;;;6.93;2.17;;;;;;;;;;4993502;28;20220;-85
2024/01/03 07:02:20;;;;;;;1.63;1.50;;;;;;;;;;4992704;28;20227;-85
2024/01/03 07:04:47;;;;;;;4.30;1.80;;;;;;;;;;4993366;28;20222;-87
2024/01/03 07:07:16;;;;;;;3.30;1.70;;;;;;;;;;4992291;28;20629;-86
2024/01/03 07:09:44;;;;;;;5.70;2.53;;;;;;;;;;4993488;28;20270;-85
2024/01/03 07:12:11;;;;;;;1.40;1.30;;;;;;;;;;4992810;28;20232;-86
2024/01/03 07:14:39;;;;;;;3.73;1.83;;;;;;;;;;4993268;28;20200;-86
2024/01/03 07:17:06;;;;;;;3.97;2.17;;;;;;;;;;4992154;28;20238;-84
2024/01/03 07:19:33;;;;;;;3.20;1.63;;;;;;;;;;4992715;28;20303;-84
2024/01/03 07:22:01;;;;;;;6.93;2.17;;;;;;;;;;4992094;28;20236;-84
2024/01/03 07:24:28;;;;;;;5.97;2.23;;;;;;;;;;4992891;28;20203;-87
2024/01/03 07:26:55;;;;;;;5.03;1.87;;;;;;;;;;4992220;28;20598;-83
2024/01/03 07:29:22;;;;;;;2.30;1.40;;;;;;;;;;4992506;28;20282;-84
2024/01/03 07:31:50;;;;;;;2.73;1.37;;;;;;;;;;4992023;28;20267;-83
2024/01/03 07:34:17;;;;;;;3.80;1.57;;;;;;;;;;4992245;28;20215;-85
2024/01/03 07:36:44;;;;;;;2.73;1.43;;;;;;;;;;4991957;28;20240;-83
2024/01/03 07:39:11;;;;;;;14.40;1.87;;;;;;;;;;4992205;28;20615;-83
2024/01/03 07:41:38;;;;;;;4.27;2.23;;;;;;;;;;4986709;28;20694;-84
2024/01/03 07:44:05;;;;;;;3.80;2.17;;;;;;;;;;4992131;28;20686;-84
2024/01/03 07:46:32;;;;;;;1.27;1.27;;;;;;;;;;4992033;28;20240;-86
2024/01/03 07:49:01;;;;;;;1.80;1.70;;;;;;;;;;4997568;28;20699;-88
2024/01/03 07:51:28;;;;;;;4.03;1.40;;;;;;;;;;4988865;28;20234;-84
2024/01/03 07:53:55;;;;;;;2.27;1.30;;;;;;;;;;4996529;28;20246;-84
2024/01/03 07:56:22;;;;;;;5.50;1.60;;;;;;;;;;4995479;28;20238;-84
2024/01/03 07:58:49;;;;;;;3.23;2.00;;;;;;;;;;4996242;28;20220;-84
2024/01/03 08:01:16;;;;;;;1.47;1.23;;;;;;;;;;4995713;28;20623;-84
2024/01/03 08:03:43;;;;;;;3.30;1.30;;;;;;;;;;4996572;28;20328;-84
2024/01/03 08:06:13;;;;;;;7.27;1.73;;;;;;;;;;4995541;28;20250;-84
2024/01/03 08:08:40;;;;;;;1.63;1.30;;;;;;;;;;4996836;28;20251;-84
2024/01/03 08:11:07;;;;;;;4.03;1.87;;;;;;;;;;4996689;28;20239;-87
2024/01/03 08:13:34;;;;;;;1.67;1.30;;;;;;;;;;4996447;28;20215;-85
2024/01/03 08:16:01;;;;;;;1.10;1.10;;;;;;;;;;4995713;28;20235;-88
2024/01/03 08:18:28;;;;;;;2.73;1.53;;;;;;;;;;4997403;28;20243;-87
2024/01/03 08:20:55;;;;;;;2.03;1.30;;;;;;;;;;4996505;28;20263;-87
2024/01/03 08:23:23;;;;;;;1.70;1.17;;;;;;;;;;4997194;28;20243;-87
2024/01/03 08:25:50;;;;;;;3.50;1.87;;;;;;;;;;4996501;28;20268;-87
2024/01/03 08:28:17;;;;;;;1.43;1.37;;;;;;;;;;4996789;28;20275;-87
2024/01/03 08:30:44;;;;;;;1.90;1.07;;;;;;;;;;4996644;28;20239;-87
2024/01/03 08:33:11;;;;;;;5.50;1.67;;;;;;;;;;4996688;28;20685;-88
2024/01/03 08:35:38;;;;;;;4.73;2.10;;;;;;;;;;4995935;28;20243;-87
2024/01/03 08:38:05;;;;;;;3.20;1.40;;;;;;;;;;4996403;28;20215;-86
2024/01/03 08:40:34;;;;;;;2.00;1.20;;;;;;;;;;4995919;28;20232;-87
2024/01/03 08:43:01;;;;;;;2.67;1.50;;;;;;;;;;4997193;28;20228;-88
2024/01/03 08:45:28;;;;;;;2.03;1.13;;;;;;;;;;4996260;28;20236;-87
2024/01/03 08:47:55;;;;;;;1.50;1.40;;;;;;;;;;4996504;28;20247;-87
2024/01/03 08:50:22;;;;;;;2.70;1.60;;;;;;;;;;4996634;28;20216;-87
2024/01/03 08:52:49;;;;;;;2.00;1.27;;;;;;;;;;4996852;28;20204;-87
2024/01/03 08:55:16;;;;;;;1.17;1.17;;;;;;;;;;4995808;28;20737;-87
2024/01/03 08:57:44;;;;;;;2.23;1.53;;;;;;;;;;4996274;28;20200;-83
2024/01/03 09:00:12;;;;;;;2.83;1.53;;;;;;;;;;4995015;28;20210;-88
2024/01/03 09:02:39;;;;;;;2.27;1.23;;;;;;;;;;4996452;28;20573;-89
2024/01/03 09:05:06;;;;;;;1.30;1.20;;;;;;;;;;4995693;28;20263;-87
2024/01/03 09:07:33;;;;;;;2.30;1.23;;;;;;;;;;4995797;28;20231;-87
2024/01/03 09:10:00;;;;;;;1.73;1.40;;;;;;;;;;4996202;28;20228;-88
2024/01/03 09:12:27;;;;;;;3.17;1.83;;;;;;;;;;5015439;28;20956;-88
2024/01/03 09:15:02;;;;;;;1.30;1.20;;;;;;;;;;5015480;28;20215;-87
2024/01/03 09:17:29;;;;;;;1.40;1.30;;;;;;;;;;5014857;28;20239;-89
2024/01/03 09:19:56;;;;;;;1.27;1.20;;;;;;;;;;5015596;28;20224;-89
2024/01/03 09:22:23;;;;;;;1.77;1.33;;;;;;;;;;4995974;28;20676;-88
2024/01/03 09:24:51;;;;;;;2.20;1.30;;;;;;;;;;4996149;28;20237;-87
2024/01/03 09:27:18;;;;;;;2.20;1.47;;;;;;;;;;4995303;28;20267;-88
2024/01/03 09:29:45;;;;;;;1.50;1.40;;;;;;;;;;4995841;28;20247;-87
2024/01/03 09:32:16;;;;;;;2.23;1.47;;;;;;;;;;4995814;28;20250;-88
2024/01/03 09:34:44;;;;;;;1.60;1.50;;;;;;;;;;4994740;28;20199;-86
2024/01/03 09:37:19;;;;;;;2.00;1.80;;;;;;;;;;4994854;28;20227;-87
2024/01/03 09:39:50;;;;;;;1.30;1.20;;;;;;;;;;4994780;28;20242;-87
2024/01/03 09:42:17;;;;;;;2.53;1.50;;;;;;;;;;4994522;28;20238;-87
2024/01/03 09:44:47;;;;;;;3.87;1.33;;;;;;;;;;4995240;28;20211;-86
2024/01/03 09:47:15;;;;;;;1.13;1.13;;;;;;;;;;4994086;28;20243;-87
2024/01/03 09:49:43;;;;;;;5.20;1.87;;;;;;;;;;4994971;28;20239;-86
2024/01/03 09:52:10;;;;;;;1.10;1.03;;;;;;;;;;4994287;28;20232;-86
2024/01/03 09:54:38;;;;;;;1.40;1.30;;;;;;;;;;4994720;28;20212;-86
2024/01/03 09:57:06;;;;;;;1.33;1.03;;;;;;;;;;4994637;28;20232;-85
2024/01/03 09:59:33;;;;;;;0.83;0.83;;;;;;;;;;4989656;28;20709;-86
2024/01/03 10:02:00;;;;;;;1.90;1.10;;;;;;;;;;4994181;28;20224;-87
2024/01/03 10:04:29;;;;;;;1.20;1.10;;;;;;;;;;4994478;28;20203;-86
2024/01/03 10:06:57;;;;;;;1.13;1.13;;;;;;;;;;4994528;28;20757;-89
2024/01/03 10:09:25;;;;;;;1.30;1.30;;;;;;;;;;4994744;28;20327;-86
2024/01/03 10:11:53;;;;;;;2.20;1.63;;;;;;;;;;4994537;28;20359;-87
2024/01/03 10:14:21;;;;;;;1.33;1.20;;;;;;;;;;4994175;28;20200;-86
2024/01/03 10:16:48;;;;;;;1.40;1.30;;;;;;;;;;4993993;28;20228;-87
2024/01/03 10:19:17;;;;;;;1.10;1.07;;;;;;;;;;4989417;28;20228;-88
2024/01/03 10:21:50;;;;;;;1.00;1.00;;;;;;;;;;4993987;28;20224;-87
2024/01/03 10:24:31;;;;;;;2.47;1.30;;;;;;;;;;4994455;28;20287;-85
2024/01/03 10:27:08;;;;;;;1.30;1.20;;;;;;;;;;4994021;28;20318;-88
2024/01/03 10:29:35;;;;;;;1.50;1.40;;;;;;;;;;4994275;28;20219;-87
2024/01/03 10:32:05;;;;;;;3.33;1.40;;;;;;;;;;5010166;28;20231;-88
2024/01/03 10:34:32;;;;;;;3.40;1.80;;;;;;;;;;5014060;28;20215;-88
2024/01/03 10:37:05;;;;;;;2.00;1.20;;;;;;;;;;4995725;28;20232;-88
2024/01/03 10:39:33;;;;;;;1.30;1.20;;;;;;;;;;4993516;28;20235;-88
2024/01/03 10:42:01;;;;;;;1.67;1.40;;;;;;;;;;4990038;28;20239;-88
2024/01/03 10:44:30;;;;;;;1.97;1.70;;;;;;;;;;4994087;28;20243;-88
2024/01/03 10:46:57;;;;;;;3.53;1.70;;;;;;;;;;4993319;28;20232;-88
2024/01/03 10:49:24;;;;;;;1.47;1.37;;;;;;;;;;4993976;28;20232;-88
2024/01/03 10:51:56;;;;;;;2.30;1.40;;;;;;;;;;5001772;28;20231;-88
2024/01/03 10:54:26;;;;;;;1.00;1.00;;;;;;;;;;5003287;28;20578;-88
2024/01/03 10:56:53;;;;;;;3.93;1.53;;;;;;;;;;5008454;28;20231;-88
2024/01/03 10:59:22;;;;;;;3.93;1.70;;;;;;;;;;5013492;28;20227;-87
2024/01/03 11:01:54;;;;;;;3.93;1.53;;;;;;;;;;5009496;28;20246;-86
2024/01/03 11:04:24;;;;;;;2.23;2.03;;;;;;;;;;5010022;28;20207;-90
2024/01/03 11:06:56;;;;;;;1.57;1.27;;;;;;;;;;5012447;28;20231;-87
2024/01/03 11:09:25;;;;;;;1.83;1.43;;;;;;;;;;5012423;28;20230;-85
2024/01/03 11:12:06;;;;;;;2.93;1.37;;;;;;;;;;5011859;28;20231;-83
2024/01/03 11:14:33;;;;;;;2.70;1.50;;;;;;;;;;5011058;28;21605;-83
2024/01/03 11:17:00;;;;;;;2.53;1.37;;;;;;;;;;5011036;28;20227;-84
2024/01/03 11:19:30;;;;;;;3.70;1.67;;;;;;;;;;5010956;28;20602;-84
2024/01/03 11:22:01;;;;;;;1.80;1.70;;;;;;;;;;5010945;28;20282;-86
2024/01/03 11:24:46;;;;;;;1.57;1.37;;;;;;;;;;5012704;28;20654;-85
2024/01/03 11:27:24;;;;;;;1.97;1.43;;;;;;;;;;5008677;28;20235;-86
2024/01/03 11:29:53;;;;;;;2.40;1.70;;;;;;;;;;5005999;28;20285;-86
2024/01/03 11:32:32;;;;;;;1.93;1.33;;;;;;;;;;5011009;28;20235;-86
2024/01/03 11:35:01;;;;;;;1.37;1.27;;;;;;;;;;5012529;28;20214;-86
2024/01/03 11:37:39;;;;;;;3.17;1.47;;;;;;;;;;5012505;28;20216;-86
2024/01/03 11:40:08;;;;;;;3.20;1.17;;;;;;;;;;5011288;28;20227;-86
2024/01/03 11:42:38;;;;;;;2.33;1.23;;;;;;;;;;5011587;28;20234;-86
2024/01/03 11:45:07;;;;;;;4.73;2.00;;;;;;;;;;5011526;28;20613;-84
2024/01/03 11:47:34;;;;;;;1.77;1.27;;;;;;;;;;5011678;28;20231;-86
2024/01/03 11:50:04;;;;;;;5.37;1.50;;;;;;;;;;5011954;28;20231;-86
2024/01/03 11:52:31;;;;;;;2.60;1.60;;;;;;;;;;4993065;28;20275;-87
2024/01/03 11:55:05;;;;;;;5.83;1.90;;;;;;;;;;5006334;28;20610;-86
2024/01/03 11:57:33;;;;;;;1.97;1.57;;;;;;;;;;4993261;28;20255;-87
2024/01/03 12:00:01;;;;;;;2.33;1.23;;;;;;;;;;5001470;28;20231;-88
2024/01/03 12:02:28;;;;;;;2.97;1.00;;;;;;;;;;5001130;28;20228;-87
2024/01/03 12:05:03;;;;;;;2.63;1.50;;;;;;;;;;4998162;28;20215;-87
2024/01/03 12:07:31;;;;;;;4.27;1.90;;;;;;;;;;5009206;28;20234;-87
2024/01/03 12:09:59;;;;;;;5.43;1.87;;;;;;;;;;5006121;28;20227;-87
2024/01/03 12:12:26;;;;;;;3.47;1.30;;;;;;;;;;4994484;28;20701;-87
2024/01/03 12:14:53;;;;;;;3.47;1.77;;;;;;;;;;4998669;28;20212;-86
2024/01/03 12:17:29;;;;;;;7.27;1.87;;;;;;;;;;5010874;28;20234;-87
2024/01/03 12:20:07;;;;;;;5.97;2.07;;;;;;;;;;5012252;28;20589;-88
2024/01/03 12:22:34;;;;;;;3.30;1.70;;;;;;;;;;5010254;28;20251;-89
2024/01/03 12:25:01;;;;;;;4.67;2.40;;;;;;;;;;5011801;28;20219;-87
2024/01/03 12:27:29;;;;;;;4.57;1.80;;;;;;;;;;5011787;28;20227;-88
2024/01/03 12:30:10;;;;;;;2.00;1.40;;;;;;;;;;5012185;28;20337;-87
2024/01/03 12:32:39;;;;;;;4.90;1.80;;;;;;;;;;5011165;28;20242;-88
2024/01/03 12:35:06;;;;;;;2.43;1.47;;;;;;;;;;5013586;28;20218;-87
2024/01/03 12:37:33;;;;;;;2.83;1.60;;;;;;;;;;4995734;28;20212;-88
2024/01/03 12:40:00;;;;;;;2.47;1.50;;;;;;;;;;4995755;28;20258;-86
2024/01/03 12:42:27;;;;;;;1.30;1.20;;;;;;;;;;4994898;28;20239;-87
2024/01/03 12:44:54;;;;;;;5.03;2.00;;;;;;;;;;4995583;28;20231;-87
2024/01/03 12:47:21;;;;;;;4.37;1.57;;;;;;;;;;4995148;28;20239;-88
2024/01/03 12:49:51;;;;;;;3.03;1.87;;;;;;;;;;4995613;28;20224;-87
2024/01/03 12:52:26;;;;;;;2.57;1.23;;;;;;;;;;4995244;28;20318;-87
2024/01/03 12:54:53;;;;;;;2.43;2.00;;;;;;;;;;4989110;28;20207;-88
2024/01/03 12:57:20;;;;;;;2.80;1.50;;;;;;;;;;4994815;28;20231;-88
2024/01/03 12:59:47;;;;;;;2.93;1.80;;;;;;;;;;4995380;28;20228;-86
2024/01/03 13:02:14;;;;;;;4.50;2.13;;;;;;;;;;4994624;28;20616;-87
2024/01/03 13:04:41;;;;;;;1.07;1.07;;;;;;;;;;4994909;28;20232;-87
2024/01/03 13:07:10;;;;;;;5.13;2.03;;;;;;;;;;4995108;28;20690;-87
2024/01/03 13:09:37;;;;;;;2.83;2.03;;;;;;;;;;4994510;28;20287;-85
2024/01/03 13:12:04;;;;;;;7.00;1.57;;;;;;;;;;4994876;28;20236;-85
2024/01/03 13:14:31;;;;;;;2.43;1.53;;;;;;;;;;4995678;28;20234;-88
2024/01/03 13:16:58;;;;;;;2.70;1.87;;;;;;;;;;4995112;28;20236;-86
2024/01/03 13:19:25;;;;;;;6.60;1.83;;;;;;;;;;4995469;28;20688;-88
2024/01/03 13:21:53;;;;;;;2.60;1.40;;;;;;;;;;4994456;28;20236;-88
2024/01/03 13:24:22;;;;;;;9.80;2.60;;;;;;;;;;4994643;28;20219;-87
2024/01/03 13:26:49;;;;;;;1.20;1.10;;;;;;;;;;4985319;28;20238;-87
2024/01/03 13:29:16;;;;;;;3.10;1.50;;;;;;;;;;4990962;28;20286;-87
2024/01/03 13:31:43;;;;;;;3.90;1.83;;;;;;;;;;4994738;28;20270;-89
2024/01/03 13:34:16;;;;;;;3.87;1.27;;;;;;;;;;4994809;28;20203;-88
2024/01/03 13:36:43;;;;;;;6.27;2.03;;;;;;;;;;4995052;28;20286;-88
2024/01/03 13:39:11;;;;;;;1.70;1.60;;;;;;;;;;4995066;28;20228;-88
2024/01/03 13:41:39;;;;;;;3.17;1.60;;;;;;;;;;4994537;28;20243;-88
2024/01/03 13:44:07;;;;;;;6.77;1.90;;;;;;;;;;4994746;28;20204;-88
2024/01/03 13:46:39;;;;;;;4.03;1.50;;;;;;;;;;4993800;28;20264;-87
2024/01/03 13:49:08;;;;;;;3.50;1.57;;;;;;;;;;4994624;28;20232;-87
2024/01/03 13:51:35;;;;;;;2.90;1.70;;;;;;;;;;4994132;28;20801;-88
2024/01/03 13:54:02;;;;;;;1.27;1.20;;;;;;;;;;4994363;28;20204;-87
2024/01/03 13:56:29;;;;;;;2.10;1.60;;;;;;;;;;4994039;28;20239;-87
2024/01/03 13:58:57;;;;;;;4.33;1.63;;;;;;;;;;4994521;28;20661;-85
2024/01/03 14:01:24;;;;;;;2.80;1.47;;;;;;;;;;4994111;28;20294;-86
2024/01/03 14:03:51;;;;;;;3.40;1.50;;;;;;;;;;4994547;28;20211;-87
2024/01/03 14:06:18;;;;;;;1.63;1.53;;;;;;;;;;4994093;28;20232;-87
2024/01/03 14:08:45;;;;;;;3.37;2.30;;;;;;;;;;4994358;28;20786;-88
2024/01/03 14:11:13;;;;;;;2.17;1.63;;;;;;;;;;4993976;28;20290;-85
2024/01/03 14:13:40;;;;;;;5.03;1.60;;;;;;;;;;4994374;28;20212;-87
2024/01/03 14:16:09;;;;;;;2.50;2.30;;;;;;;;;;4993805;28;20243;-87
2024/01/03 14:18:36;;;;;;;1.93;1.40;;;;;;;;;;4994190;28;20232;-87
2024/01/03 14:21:04;;;;;;;2.10;1.60;;;;;;;;;;4993757;28;20714;-86
2024/01/03 14:23:32;;;;;;;2.53;1.50;;;;;;;;;;4993673;28;20210;-86
2024/01/03 14:25:59;;;;;;;1.77;1.63;;;;;;;;;;4993515;28;20235;-87
2024/01/03 14:28:26;;;;;;;4.37;2.27;;;;;;;;;;4993639;28;20266;-87
2024/01/03 14:30:54;;;;;;;3.63;2.33;;;;;;;;;;4992623;28;20243;-86
2024/01/03 14:33:22;;;;;;;3.73;1.97;;;;;;;;;;4992637;28;20235;-86
2024/01/03 14:35:49;;;;;;;1.30;1.20;;;;;;;;;;4992452;28;20243;-87
2024/01/03 14:38:16;;;;;;;2.53;1.63;;;;;;;;;;4992653;28;20246;-84
2024/01/03 14:40:48;;;;;;;2.47;1.40;;;;;;;;;;4992608;28;20647;-87
2024/01/03 14:43:30;;;;;;;1.40;1.40;;;;;;;;;;4993735;28;20220;-86
2024/01/03 14:45:59;;;;;;;2.40;2.20;;;;;;;;;;4992289;28;20252;-85
2024/01/03 14:48:28;;;;;;;1.63;1.53;;;;;;;;;;4992694;28;20228;-85